createdAt,value
2016-07-10T00:00:41.803Z,1000.11
2016-07-10T00:01:41.823Z,1000.11
2016-07-10T00:02:41.843Z,1000.11
2016-07-10T00:03:41.862Z,1000.13
2016-07-10T00:04:41.888Z,1000.18
2016-07-10T00:05:41.908Z,1000.11
2016-07-10T00:06:41.926Z,1000.11
2016-07-10T00:07:41.950Z,1000.08
2016-07-10T00:08:41.969Z,1000.13
2016-07-10T00:09:41.990Z,1000.1
2016-07-10T00:10:42.013Z,1000.11
2016-07-10T00:11:42.031Z,1000.12
2016-07-10T00:12:42.057Z,1000.1
2016-07-10T00:13:42.076Z,1000.1
2016-07-10T00:14:42.096Z,1000.07
2016-07-10T00:15:42.119Z,1000.07
2016-07-10T00:16:42.141Z,1000.12
2016-07-10T00:17:42.160Z,1000.09
2016-07-10T00:18:42.183Z,1000.06
2016-07-10T00:19:42.201Z,1000.08
2016-07-10T00:20:42.225Z,1000.03
2016-07-10T00:21:42.246Z,1000.03
2016-07-10T00:22:42.268Z,1000.06
2016-07-10T00:23:42.284Z,1000.06
2016-07-10T00:24:42.309Z,1000.08
2016-07-10T00:25:42.328Z,1000.06
2016-07-10T00:26:42.349Z,1000.04
2016-07-10T00:27:42.372Z,1000.07
2016-07-10T00:28:42.393Z,1000.06
2016-07-10T00:29:42.414Z,1000.08
2016-07-10T00:30:42.432Z,1000
2016-07-10T00:31:42.459Z,1000.02
2016-07-10T00:32:42.478Z,1000.06
2016-07-10T00:33:42.495Z,1000.01
2016-07-10T00:34:42.517Z,999.98
2016-07-10T00:35:42.539Z,999.95
2016-07-10T00:36:42.560Z,999.91
2016-07-10T00:37:42.588Z,999.91
2016-07-10T00:38:42.602Z,999.89
2016-07-10T00:39:42.624Z,999.88
2016-07-10T00:40:42.642Z,999.86
2016-07-10T00:41:42.665Z,999.9
2016-07-10T00:42:42.685Z,999.9
2016-07-10T00:43:42.704Z,999.93
2016-07-10T00:44:42.725Z,999.91
2016-07-10T00:45:42.747Z,999.91
2016-07-10T00:46:42.771Z,999.9
2016-07-10T00:47:42.789Z,999.9
2016-07-10T00:48:42.813Z,999.91
2016-07-10T00:49:42.833Z,999.89
2016-07-10T00:50:42.851Z,999.88
2016-07-10T00:51:42.873Z,999.87
2016-07-10T00:52:42.896Z,999.84
2016-07-10T00:53:42.914Z,999.88
2016-07-10T00:54:42.938Z,999.85
2016-07-10T00:55:42.959Z,999.85
2016-07-10T00:56:42.980Z,999.85
2016-07-10T00:57:43.001Z,999.88
2016-07-10T00:58:43.020Z,999.86
2016-07-10T00:59:43.042Z,999.88
2016-07-10T01:00:43.059Z,999.84
2016-07-10T01:01:43.085Z,999.83
2016-07-10T01:02:43.102Z,999.82
2016-07-10T01:03:43.124Z,999.8
2016-07-10T01:04:43.148Z,999.77
2016-07-10T01:05:43.168Z,999.81
2016-07-10T01:06:43.190Z,999.76
2016-07-10T01:07:43.209Z,999.78
2016-07-10T01:08:43.231Z,999.73
2016-07-10T01:09:43.254Z,999.75
2016-07-10T01:10:43.274Z,999.72
2016-07-10T01:11:43.294Z,999.69
2016-07-10T01:12:43.315Z,999.71
2016-07-10T01:13:43.337Z,999.71
2016-07-10T01:14:43.358Z,999.7
2016-07-10T01:15:43.379Z,999.67
2016-07-10T01:16:43.401Z,999.64
2016-07-10T01:17:43.422Z,999.66
2016-07-10T01:18:43.440Z,999.65
2016-07-10T01:19:43.464Z,999.66
2016-07-10T01:20:43.485Z,999.66
2016-07-10T01:21:43.504Z,999.61
2016-07-10T01:22:43.522Z,999.58
2016-07-10T01:23:43.545Z,999.6
2016-07-10T01:24:43.567Z,999.6
2016-07-10T01:25:43.587Z,999.59
2016-07-10T01:26:43.606Z,999.58
2016-07-10T01:27:43.631Z,999.56
2016-07-10T01:28:43.649Z,999.55
2016-07-10T01:29:43.669Z,999.54
2016-07-10T01:30:43.692Z,999.54
2016-07-10T01:31:43.711Z,999.51
2016-07-10T01:32:43.736Z,999.49
2016-07-10T01:33:43.756Z,999.51
2016-07-10T01:34:43.775Z,999.48
2016-07-10T01:35:43.795Z,999.46
2016-07-10T01:36:43.813Z,999.47
2016-07-10T01:37:43.838Z,999.49
2016-07-10T01:38:43.859Z,999.5
2016-07-10T01:39:43.875Z,999.5
2016-07-10T01:40:43.899Z,999.49
2016-07-10T01:41:43.920Z,999.48
2016-07-10T01:42:43.940Z,999.48
2016-07-10T01:43:43.960Z,999.46
2016-07-10T01:44:43.982Z,999.48
2016-07-10T01:45:44.002Z,999.53
2016-07-10T01:46:44.024Z,999.45
2016-07-10T01:47:44.045Z,999.47
2016-07-10T01:48:44.066Z,999.45
2016-07-10T01:49:44.087Z,999.44
2016-07-10T01:50:44.106Z,999.43
2016-07-10T01:51:44.128Z,999.46
2016-07-10T01:52:44.152Z,999.43
2016-07-10T01:53:44.171Z,999.46
2016-07-10T01:54:44.193Z,999.39
2016-07-10T01:55:44.211Z,999.4
2016-07-10T01:56:44.234Z,999.43
2016-07-10T01:57:44.253Z,999.4
2016-07-10T01:58:44.277Z,999.4
2016-07-10T01:59:44.294Z,999.4
2016-07-10T02:00:44.316Z,999.39
2016-07-10T02:01:44.338Z,999.42
2016-07-10T02:02:44.361Z,999.38
2016-07-10T02:03:44.379Z,999.38
2016-07-10T02:04:44.403Z,999.35
2016-07-10T02:05:44.416Z,999.35
2016-07-10T02:06:44.438Z,999.33
2016-07-10T02:07:44.460Z,999.36
2016-07-10T02:08:44.481Z,999.36
2016-07-10T02:09:44.499Z,999.37
2016-07-10T02:10:44.525Z,999.37
2016-07-10T02:11:44.547Z,999.37
2016-07-10T02:12:44.566Z,999.34
2016-07-10T02:13:44.586Z,999.34
2016-07-10T02:14:44.607Z,999.32
2016-07-10T02:15:44.632Z,999.32
2016-07-10T02:16:44.645Z,999.31
2016-07-10T02:17:44.667Z,999.3
2016-07-10T02:18:44.691Z,999.35
2016-07-10T02:19:44.708Z,999.35
2016-07-10T02:20:44.730Z,999.37
2016-07-10T02:21:44.750Z,999.39
2016-07-10T02:22:44.774Z,999.34
2016-07-10T02:23:44.791Z,999.37
2016-07-10T02:24:44.811Z,999.36
2016-07-10T02:25:44.833Z,999.34
2016-07-10T02:26:44.853Z,999.31
2016-07-10T02:27:44.874Z,999.3
2016-07-10T02:28:44.897Z,999.33
2016-07-10T02:29:44.916Z,999.28
2016-07-10T02:30:44.937Z,999.29
2016-07-10T02:31:44.960Z,999.28
2016-07-10T02:32:44.980Z,999.28
2016-07-10T02:33:45.002Z,999.27
2016-07-10T02:34:45.021Z,999.27
2016-07-10T02:35:45.042Z,999.24
2016-07-10T02:36:45.065Z,999.24
2016-07-10T02:37:45.085Z,999.23
2016-07-10T02:38:45.104Z,999.25
2016-07-10T02:39:45.126Z,999.24
2016-07-10T02:40:45.149Z,999.24
2016-07-10T02:41:45.176Z,999.23
2016-07-10T02:42:45.189Z,999.28
2016-07-10T02:43:45.210Z,999.25
2016-07-10T02:44:45.229Z,999.23
2016-07-10T02:45:45.252Z,999.26
2016-07-10T02:46:45.272Z,999.22
2016-07-10T02:47:45.293Z,999.23
2016-07-10T02:48:45.313Z,999.23
2016-07-10T02:49:45.345Z,999.22
2016-07-10T02:50:45.358Z,999.22
2016-07-10T02:51:45.383Z,999.25
2016-07-10T02:52:45.433Z,999.28
2016-07-10T02:53:45.469Z,999.27
2016-07-10T02:54:45.487Z,999.26
2016-07-10T02:55:45.456Z,999.2
2016-07-10T02:56:45.480Z,999.23
2016-07-10T02:57:45.499Z,999.15
2016-07-10T02:58:45.522Z,999.13
2016-07-10T02:59:45.543Z,999.1
2016-07-10T03:00:45.562Z,999.09
2016-07-10T03:01:45.582Z,999.13
2016-07-10T03:02:45.601Z,999.11
2016-07-10T03:03:45.632Z,999.08
2016-07-10T03:04:45.649Z,999.08
2016-07-10T03:05:45.668Z,999.09
2016-07-10T03:06:45.687Z,999.09
2016-07-10T03:07:45.706Z,999.08
2016-07-10T03:08:45.728Z,999.08
2016-07-10T03:09:45.750Z,999.04
2016-07-10T03:10:45.763Z,999.03
2016-07-10T03:11:45.788Z,999.07
2016-07-10T03:12:45.809Z,999.03
2016-07-10T03:13:45.830Z,999.02
2016-07-10T03:14:45.851Z,998.97
2016-07-10T03:15:45.868Z,998.97
2016-07-10T03:16:45.887Z,998.99
2016-07-10T03:17:45.911Z,998.97
2016-07-10T03:18:45.934Z,999
2016-07-10T03:19:45.952Z,998.99
2016-07-10T03:20:45.976Z,998.98
2016-07-10T03:21:45.994Z,998.96
2016-07-10T03:22:46.014Z,998.94
2016-07-10T03:23:46.036Z,998.94
2016-07-10T03:24:46.057Z,998.87
2016-07-10T03:25:46.077Z,998.89
2016-07-10T03:26:46.097Z,998.87
2016-07-10T03:27:46.117Z,998.9
2016-07-10T03:28:46.140Z,998.88
2016-07-10T03:29:46.156Z,998.85
2016-07-10T03:30:46.182Z,998.88
2016-07-10T03:31:46.197Z,998.89
2016-07-10T03:32:46.221Z,998.85
2016-07-10T03:33:46.242Z,998.83
2016-07-10T03:34:46.263Z,998.83
2016-07-10T03:35:46.282Z,998.82
2016-07-10T03:36:46.302Z,998.82
2016-07-10T03:37:46.326Z,998.81
2016-07-10T03:38:46.346Z,998.87
2016-07-10T03:39:46.365Z,998.83
2016-07-10T03:40:46.390Z,998.85
2016-07-10T03:41:46.407Z,998.82
2016-07-10T03:42:46.428Z,998.81
2016-07-10T03:43:46.453Z,998.81
2016-07-10T03:44:46.470Z,998.78
2016-07-10T03:45:46.491Z,998.83
2016-07-10T03:46:46.509Z,998.8
2016-07-10T03:47:46.530Z,998.83
2016-07-10T03:48:46.550Z,998.84
2016-07-10T03:49:46.572Z,998.81
2016-07-10T03:50:46.591Z,998.82
2016-07-10T03:51:46.613Z,998.83
2016-07-10T03:52:46.641Z,998.8
2016-07-10T03:53:46.652Z,998.78
2016-07-10T03:54:46.679Z,998.78
2016-07-10T03:55:46.695Z,998.75
2016-07-10T03:56:46.716Z,998.75
2016-07-10T03:57:46.736Z,998.74
2016-07-10T03:58:46.758Z,998.77
2016-07-10T03:59:46.777Z,998.73
2016-07-10T04:00:46.799Z,998.77
2016-07-10T04:01:46.820Z,998.78
2016-07-10T04:02:46.840Z,998.75
2016-07-10T04:03:46.861Z,998.73
2016-07-10T04:04:46.880Z,998.76
2016-07-10T04:05:46.903Z,998.74
2016-07-10T04:06:46.926Z,998.72
2016-07-10T04:07:46.945Z,998.71
2016-07-10T04:08:46.973Z,998.74
2016-07-10T04:09:46.987Z,998.74
2016-07-10T04:10:47.010Z,998.69
2016-07-10T04:11:47.032Z,998.74
2016-07-10T04:12:47.054Z,998.76
2016-07-10T04:13:47.070Z,998.75
2016-07-10T04:14:47.090Z,998.73
2016-07-10T04:15:47.112Z,998.74
2016-07-10T04:16:47.136Z,998.82
2016-07-10T04:17:47.153Z,998.81
2016-07-10T04:18:47.178Z,998.84
2016-07-10T04:19:47.196Z,998.81
2016-07-10T04:20:47.223Z,998.81
2016-07-10T04:21:47.240Z,998.78
2016-07-10T04:22:47.261Z,998.83
2016-07-10T04:23:47.278Z,998.78
2016-07-10T04:24:47.302Z,998.81
2016-07-10T04:25:47.324Z,998.79
2016-07-10T04:26:47.343Z,998.81
2016-07-10T04:27:47.362Z,998.84
2016-07-10T04:28:47.384Z,998.85
2016-07-10T04:29:47.407Z,998.88
2016-07-10T04:30:47.426Z,998.84
2016-07-10T04:31:47.446Z,998.84
2016-07-10T04:32:47.497Z,998.85
2016-07-10T04:33:47.493Z,998.86
2016-07-10T04:34:47.510Z,998.88
2016-07-10T04:35:47.534Z,998.89
2016-07-10T04:36:47.556Z,998.88
2016-07-10T04:37:47.575Z,998.86
2016-07-10T04:38:47.595Z,998.89
2016-07-10T04:39:47.623Z,998.92
2016-07-10T04:40:47.637Z,998.9
2016-07-10T04:41:47.658Z,998.9
2016-07-10T04:42:47.682Z,998.87
2016-07-10T04:43:47.701Z,998.84
2016-07-10T04:44:47.721Z,998.84
2016-07-10T04:45:47.742Z,998.8
2016-07-10T04:46:47.767Z,998.8
2016-07-10T04:47:47.784Z,998.83
2016-07-10T04:48:47.807Z,998.8
2016-07-10T04:49:47.829Z,998.82
2016-07-10T04:50:47.851Z,998.82
2016-07-10T04:51:47.869Z,998.84
2016-07-10T04:52:47.891Z,998.81
2016-07-10T04:53:47.913Z,998.78
2016-07-10T04:54:47.937Z,998.78
2016-07-10T04:55:47.952Z,998.77
2016-07-10T04:56:47.979Z,998.79
2016-07-10T04:57:47.999Z,998.78
2016-07-10T04:58:48.025Z,998.79
2016-07-10T04:59:48.043Z,998.77
2016-07-10T05:00:48.065Z,998.83
2016-07-10T05:01:48.087Z,998.78
2016-07-10T05:02:48.107Z,998.78
2016-07-10T05:03:48.127Z,998.81
2016-07-10T05:04:48.151Z,998.78
2016-07-10T05:05:48.170Z,998.8
2016-07-10T05:06:48.196Z,998.79
2016-07-10T05:07:48.214Z,998.79
2016-07-10T05:08:48.236Z,998.81
2016-07-10T05:09:48.257Z,998.82
2016-07-10T05:10:48.283Z,998.86
2016-07-10T05:11:48.299Z,998.84
2016-07-10T05:12:48.322Z,998.84
2016-07-10T05:13:48.344Z,998.88
2016-07-10T05:14:48.367Z,998.85
2016-07-10T05:15:48.387Z,998.84
2016-07-10T05:16:48.405Z,998.84
2016-07-10T05:17:48.432Z,998.8
2016-07-10T05:18:48.452Z,998.79
2016-07-10T05:19:48.472Z,998.78
2016-07-10T05:20:48.495Z,998.78
2016-07-10T05:21:48.518Z,998.79
2016-07-10T05:22:48.538Z,998.79
2016-07-10T05:23:48.562Z,998.78
2016-07-10T05:24:48.580Z,998.74
2016-07-10T05:25:48.604Z,998.74
2016-07-10T05:26:48.621Z,998.74
2016-07-10T05:27:48.646Z,998.76
2016-07-10T05:28:48.668Z,998.74
2016-07-10T05:29:48.688Z,998.74
2016-07-10T05:30:48.712Z,998.74
2016-07-10T05:31:48.734Z,998.76
2016-07-10T05:32:48.753Z,998.73
2016-07-10T05:33:48.775Z,998.79
2016-07-10T05:34:48.801Z,998.75
2016-07-10T05:35:48.821Z,998.78
2016-07-10T05:36:48.844Z,998.78
2016-07-10T05:37:48.868Z,998.78
2016-07-10T05:38:48.890Z,998.77
2016-07-10T05:39:48.908Z,998.77
2016-07-10T05:40:48.931Z,998.74
2016-07-10T05:41:48.958Z,998.72
2016-07-10T05:42:48.978Z,998.76
2016-07-10T05:43:48.996Z,998.7
2016-07-10T05:44:49.024Z,998.74
2016-07-10T05:45:49.043Z,998.72
2016-07-10T05:46:49.070Z,998.74
2016-07-10T05:47:49.096Z,998.8
2016-07-10T05:48:49.112Z,998.79
2016-07-10T05:49:49.135Z,998.81
2016-07-10T05:50:49.156Z,998.8
2016-07-10T05:51:49.176Z,998.76
2016-07-10T05:52:49.201Z,998.8
2016-07-10T05:53:49.221Z,998.8
2016-07-10T05:54:49.246Z,998.77
2016-07-10T05:55:49.268Z,998.82
2016-07-10T05:56:49.293Z,998.82
2016-07-10T05:57:49.313Z,998.8
2016-07-10T05:58:49.334Z,998.77
2016-07-10T05:59:49.359Z,998.75
2016-07-10T06:00:49.379Z,998.76
2016-07-10T06:01:49.406Z,998.73
2016-07-10T06:02:49.427Z,998.7
2016-07-10T06:03:49.450Z,998.68
2016-07-10T06:04:49.470Z,998.74
2016-07-10T06:05:49.496Z,998.78
2016-07-10T06:06:49.527Z,998.75
2016-07-10T06:07:49.540Z,998.79
2016-07-10T06:08:49.564Z,998.81
2016-07-10T06:09:49.588Z,998.8
2016-07-10T06:10:49.615Z,998.8
2016-07-10T06:11:49.632Z,998.8
2016-07-10T06:12:49.657Z,998.78
2016-07-10T06:13:49.679Z,998.82
2016-07-10T06:14:49.701Z,998.83
2016-07-10T06:15:49.726Z,998.8
2016-07-10T06:16:49.758Z,998.79
2016-07-10T06:17:49.772Z,998.75
2016-07-10T06:18:49.801Z,998.76
2016-07-10T06:19:49.821Z,998.78
2016-07-10T06:20:49.846Z,998.79
2016-07-10T06:21:49.869Z,998.78
2016-07-10T06:22:49.891Z,998.75
2016-07-10T06:23:49.917Z,998.8
2016-07-10T06:24:49.935Z,998.81
2016-07-10T06:25:49.960Z,998.75
2016-07-10T06:26:49.984Z,998.7
2016-07-10T06:27:50.012Z,998.76
2016-07-10T06:28:50.030Z,998.74
2016-07-10T06:29:50.055Z,998.71
2016-07-10T06:30:50.081Z,998.7
2016-07-10T06:31:50.105Z,998.69
2016-07-10T06:32:50.128Z,998.7
2016-07-10T06:33:50.151Z,998.67
2016-07-10T06:34:50.175Z,998.66
2016-07-10T06:35:50.202Z,998.7
2016-07-10T06:36:50.224Z,998.7
2016-07-10T06:37:50.248Z,998.65
2016-07-10T06:38:50.270Z,998.73
2016-07-10T06:39:50.296Z,998.7
2016-07-10T06:40:50.320Z,998.71
2016-07-10T06:41:50.345Z,998.71
2016-07-10T06:42:50.367Z,998.73
2016-07-10T06:43:50.393Z,998.73
2016-07-10T06:44:50.414Z,998.73
2016-07-10T06:45:50.443Z,998.72
2016-07-10T06:46:50.465Z,998.71
2016-07-10T06:47:50.491Z,998.73
2016-07-10T06:48:50.513Z,998.68
2016-07-10T06:49:50.539Z,998.66
2016-07-10T06:50:50.563Z,998.65
2016-07-10T06:51:50.584Z,998.65
2016-07-10T06:52:50.610Z,998.65
2016-07-10T06:53:50.634Z,998.63
2016-07-10T06:54:50.666Z,998.6
2016-07-10T06:55:50.684Z,998.57
2016-07-10T06:56:50.708Z,998.56
2016-07-10T06:57:50.734Z,998.51
2016-07-10T06:58:50.754Z,998.5
2016-07-10T06:59:50.780Z,998.51
2016-07-10T07:00:50.805Z,998.5
2016-07-10T07:01:50.830Z,998.48
2016-07-10T07:02:50.855Z,998.48
2016-07-10T07:03:50.878Z,998.45
2016-07-10T07:04:50.905Z,998.4
2016-07-10T07:05:50.926Z,998.39
2016-07-10T07:06:50.952Z,998.4
2016-07-10T07:07:50.975Z,998.39
2016-07-10T07:08:51.001Z,998.45
2016-07-10T07:09:51.023Z,998.41
2016-07-10T07:10:51.050Z,998.36
2016-07-10T07:11:51.074Z,998.35
2016-07-10T07:12:51.100Z,998.34
2016-07-10T07:13:51.124Z,998.36
2016-07-10T07:14:51.147Z,998.43
2016-07-10T07:15:51.172Z,998.32
2016-07-10T07:16:51.194Z,998.37
2016-07-10T07:17:51.217Z,998.35
2016-07-10T07:18:51.243Z,998.34
2016-07-10T07:19:51.270Z,998.26
2016-07-10T07:20:51.295Z,998.3
2016-07-10T07:21:51.317Z,998.28
2016-07-10T07:22:51.338Z,998.23
2016-07-10T07:23:51.363Z,998.21
2016-07-10T07:24:51.389Z,998.26
2016-07-10T07:25:51.411Z,998.23
2016-07-10T07:26:51.437Z,998.18
2016-07-10T07:27:51.462Z,998.17
2016-07-10T07:28:51.488Z,998.19
2016-07-10T07:29:51.507Z,998.24
2016-07-10T07:30:51.536Z,998.21
2016-07-10T07:31:51.561Z,998.22
2016-07-10T07:32:51.581Z,998.16
2016-07-10T07:33:51.610Z,998.22
2016-07-10T07:34:51.634Z,998.24
2016-07-10T07:35:51.657Z,998.24
2016-07-10T07:36:51.683Z,998.24
2016-07-10T07:37:51.704Z,998.21
2016-07-10T07:38:51.728Z,998.24
2016-07-10T07:39:51.753Z,998.24
2016-07-10T07:40:51.775Z,998.25
2016-07-10T07:41:51.802Z,998.16
2016-07-10T07:42:51.830Z,998.16
2016-07-10T07:43:51.850Z,998.15
2016-07-10T07:44:51.876Z,998.13
2016-07-10T07:45:51.899Z,998.09
2016-07-10T07:46:51.925Z,998.13
2016-07-10T07:47:51.950Z,998.04
2016-07-10T07:48:51.971Z,998.03
2016-07-10T07:49:51.999Z,998.03
2016-07-10T07:50:52.025Z,998.08
2016-07-10T07:51:52.047Z,998
2016-07-10T07:52:52.071Z,998.03
2016-07-10T07:53:52.092Z,997.98
2016-07-10T07:54:52.122Z,998.02
2016-07-10T07:55:52.142Z,998.03
2016-07-10T07:56:52.167Z,998.03
2016-07-10T07:57:52.189Z,997.98
2016-07-10T07:58:52.217Z,997.97
2016-07-10T07:59:52.243Z,998.01
2016-07-10T08:00:52.266Z,997.95
2016-07-10T08:01:52.285Z,997.99
2016-07-10T08:02:52.316Z,997.97
2016-07-10T08:03:52.338Z,997.93
2016-07-10T08:04:52.361Z,997.95
2016-07-10T08:05:52.384Z,997.95
2016-07-10T08:06:52.406Z,997.92
2016-07-10T08:07:52.435Z,997.9
2016-07-10T08:08:52.458Z,997.97
2016-07-10T08:09:52.482Z,997.94
2016-07-10T08:10:52.505Z,997.96
2016-07-10T08:11:52.529Z,997.93
2016-07-10T08:12:52.558Z,997.93
2016-07-10T08:13:52.581Z,997.91
2016-07-10T08:14:52.603Z,997.85
2016-07-10T08:15:52.629Z,997.92
2016-07-10T08:16:52.650Z,997.86
2016-07-10T08:17:52.674Z,997.91
2016-07-10T08:18:52.703Z,997.91
2016-07-10T08:19:52.726Z,997.86
2016-07-10T08:20:52.748Z,997.84
2016-07-10T08:21:52.776Z,997.91
2016-07-10T08:22:52.800Z,997.89
2016-07-10T08:23:52.825Z,997.88
2016-07-10T08:24:52.850Z,997.9
2016-07-10T08:25:52.874Z,997.84
2016-07-10T08:26:52.900Z,997.86
2016-07-10T08:27:52.922Z,997.83
2016-07-10T08:28:52.944Z,997.78
2016-07-10T08:29:52.969Z,997.79
2016-07-10T08:30:52.995Z,997.78
2016-07-10T08:31:53.018Z,997.76
2016-07-10T08:32:53.042Z,997.75
2016-07-10T08:33:53.068Z,997.69
2016-07-10T08:34:53.093Z,997.74
2016-07-10T08:35:53.118Z,997.71
2016-07-10T08:36:53.142Z,997.7
2016-07-10T08:37:53.171Z,997.68
2016-07-10T08:38:53.195Z,997.63
2016-07-10T08:39:53.217Z,997.61
2016-07-10T08:40:53.245Z,997.58
2016-07-10T08:41:53.270Z,997.58
2016-07-10T08:42:53.293Z,997.62
2016-07-10T08:43:53.318Z,997.59
2016-07-10T08:44:53.343Z,997.55
2016-07-10T08:45:53.378Z,997.51
2016-07-10T08:46:53.394Z,997.49
2016-07-10T08:47:53.418Z,997.47
2016-07-10T08:48:53.442Z,997.41
2016-07-10T08:49:53.467Z,997.4
2016-07-10T08:50:53.490Z,997.37
2016-07-10T08:51:53.517Z,997.4
2016-07-10T08:52:53.542Z,997.36
2016-07-10T08:53:53.567Z,997.36
2016-07-10T08:54:53.590Z,997.33
2016-07-10T08:55:53.617Z,997.32
2016-07-10T08:56:53.640Z,997.41
2016-07-10T08:57:53.663Z,997.36
2016-07-10T08:58:53.688Z,997.3
2016-07-10T08:59:53.713Z,997.34
2016-07-10T09:00:53.740Z,997.26
2016-07-10T09:01:53.763Z,997.29
2016-07-10T09:02:53.787Z,997.28
2016-07-10T09:03:53.815Z,997.32
2016-07-10T09:04:53.838Z,997.28
2016-07-10T09:05:53.862Z,997.25
2016-07-10T09:06:53.888Z,997.28
2016-07-10T09:07:53.912Z,997.29
2016-07-10T09:08:53.937Z,997.27
2016-07-10T09:09:53.964Z,997.3
2016-07-10T09:10:53.989Z,997.29
2016-07-10T09:11:54.014Z,997.26
2016-07-10T09:12:54.037Z,997.26
2016-07-10T09:13:54.066Z,997.22
2016-07-10T09:14:54.092Z,997.24
2016-07-10T09:15:54.114Z,997.22
2016-07-10T09:16:54.138Z,997.28
2016-07-10T09:17:54.164Z,997.25
2016-07-10T09:18:54.190Z,997.22
2016-07-10T09:19:54.214Z,997.27
2016-07-10T09:20:54.237Z,997.3
2016-07-10T09:21:54.264Z,997.24
2016-07-10T09:22:54.290Z,997.23
2016-07-10T09:23:54.312Z,997.21
2016-07-10T09:24:54.338Z,997.18
2016-07-10T09:25:54.366Z,997.18
2016-07-10T09:26:54.393Z,997.14
2016-07-10T09:27:54.415Z,997.13
2016-07-10T09:28:54.447Z,997.13
2016-07-10T09:29:54.465Z,997.13
2016-07-10T09:30:54.493Z,997.07
2016-07-10T09:31:54.518Z,997.12
2016-07-10T09:32:54.542Z,997.14
2016-07-10T09:33:54.566Z,997.09
2016-07-10T09:34:54.590Z,997.09
2016-07-10T09:35:54.615Z,997.11
2016-07-10T09:36:54.645Z,997.13
2016-07-10T09:37:54.668Z,997.12
2016-07-10T09:38:54.693Z,997.06
2016-07-10T09:39:54.720Z,997.13
2016-07-10T09:40:54.744Z,997.14
2016-07-10T09:41:54.766Z,997.16
2016-07-10T09:42:54.793Z,997.11
2016-07-10T09:43:54.818Z,997.13
2016-07-10T09:44:54.841Z,997.05
2016-07-10T09:45:54.866Z,997.08
2016-07-10T09:46:54.890Z,997.06
2016-07-10T09:47:54.919Z,997.03
2016-07-10T09:48:54.943Z,997.01
2016-07-10T09:49:54.965Z,996.91
2016-07-10T09:50:54.991Z,996.94
2016-07-10T09:51:55.018Z,996.84
2016-07-10T09:52:55.040Z,996.92
2016-07-10T09:53:55.068Z,996.85
2016-07-10T09:54:55.094Z,996.89
2016-07-10T09:55:55.120Z,996.87
2016-07-10T09:56:55.143Z,996.94
2016-07-10T09:57:55.169Z,996.91
2016-07-10T09:58:55.194Z,996.94
2016-07-10T09:59:55.220Z,996.99
2016-07-10T10:00:55.242Z,996.95
2016-07-10T10:01:55.270Z,996.94
2016-07-10T10:02:55.294Z,996.9
2016-07-10T10:03:55.319Z,996.98
2016-07-10T10:04:55.342Z,996.97
2016-07-10T10:05:55.370Z,996.92
2016-07-10T10:06:55.393Z,996.93
2016-07-10T10:07:55.417Z,996.96
2016-07-10T10:08:55.441Z,996.94
2016-07-10T10:09:55.471Z,996.99
2016-07-10T10:10:55.493Z,996.93
2016-07-10T10:11:55.515Z,996.92
2016-07-10T10:12:55.540Z,996.89
2016-07-10T10:13:55.568Z,996.8
2016-07-10T10:14:55.596Z,996.82
2016-07-10T10:15:55.617Z,996.81
2016-07-10T10:16:55.646Z,996.81
2016-07-10T10:17:55.666Z,996.8
2016-07-10T10:18:55.697Z,996.78
2016-07-10T10:19:55.722Z,996.79
2016-07-10T10:20:55.747Z,996.88
2016-07-10T10:21:55.770Z,996.82
2016-07-10T10:22:55.797Z,996.8
2016-07-10T10:23:55.826Z,996.8
2016-07-10T10:24:55.852Z,996.69
2016-07-10T10:25:55.876Z,996.74
2016-07-10T10:26:55.901Z,996.79
2016-07-10T10:27:55.925Z,996.76
2016-07-10T10:28:55.951Z,996.73
2016-07-10T10:29:55.973Z,996.73
2016-07-10T10:30:56.001Z,996.68
2016-07-10T10:31:56.029Z,996.71
2016-07-10T10:32:56.052Z,996.69
2016-07-10T10:33:56.078Z,996.66
2016-07-10T10:34:56.104Z,996.73
2016-07-10T10:35:56.130Z,996.67
2016-07-10T10:36:56.156Z,996.66
2016-07-10T10:37:56.180Z,996.62
2016-07-10T10:38:56.204Z,996.61
2016-07-10T10:39:56.234Z,996.52
2016-07-10T10:40:56.255Z,996.56
2016-07-10T10:41:56.289Z,996.53
2016-07-10T10:42:56.309Z,996.57
2016-07-10T10:43:56.336Z,996.54
2016-07-10T10:44:56.359Z,996.53
2016-07-10T10:45:56.384Z,996.52
2016-07-10T10:46:56.413Z,996.53
2016-07-10T10:47:56.439Z,996.51
2016-07-10T10:48:56.462Z,996.48
2016-07-10T10:49:56.485Z,996.5
2016-07-10T10:50:56.511Z,996.47
2016-07-10T10:51:56.538Z,996.43
2016-07-10T10:52:56.563Z,996.49
2016-07-10T10:53:56.590Z,996.46
2016-07-10T10:54:56.615Z,996.45
2016-07-10T10:55:56.642Z,996.46
2016-07-10T10:56:56.666Z,996.48
2016-07-10T10:57:56.694Z,996.52
2016-07-10T10:58:56.715Z,996.55
2016-07-10T10:59:56.743Z,996.55
2016-07-10T11:00:56.769Z,996.52
2016-07-10T11:01:56.795Z,996.47
2016-07-10T11:02:56.819Z,996.41
2016-07-10T11:03:56.844Z,996.43
2016-07-10T11:04:56.871Z,996.44
2016-07-10T11:05:56.894Z,996.44
2016-07-10T11:06:56.924Z,996.36
2016-07-10T11:07:56.949Z,996.36
2016-07-10T11:08:56.974Z,996.34
2016-07-10T11:09:56.997Z,996.35
2016-07-10T11:10:57.025Z,996.36
2016-07-10T11:11:57.054Z,996.39
2016-07-10T11:12:57.078Z,996.39
2016-07-10T11:13:57.102Z,996.38
2016-07-10T11:14:57.127Z,996.36
2016-07-10T11:15:57.156Z,996.27
2016-07-10T11:16:57.181Z,996.34
2016-07-10T11:17:57.203Z,996.31
2016-07-10T11:18:57.232Z,996.26
2016-07-10T11:19:57.260Z,996.23
2016-07-10T11:20:57.281Z,996.25
2016-07-10T11:21:57.305Z,996.28
2016-07-10T11:22:57.335Z,996.3
2016-07-10T11:23:57.360Z,996.3
2016-07-10T11:24:57.384Z,996.24
2016-07-10T11:25:57.413Z,996.25
2016-07-10T11:26:57.442Z,996.31
2016-07-10T11:27:57.462Z,996.26
2016-07-10T11:28:57.491Z,996.25
2016-07-10T11:29:57.517Z,996.22
2016-07-10T11:30:57.544Z,996.22
2016-07-10T11:31:57.572Z,996.21
2016-07-10T11:32:57.596Z,996.19
2016-07-10T11:33:57.623Z,996.22
2016-07-10T11:34:57.653Z,996.18
2016-07-10T11:35:57.675Z,996.18
2016-07-10T11:36:57.704Z,996.14
2016-07-10T11:37:57.732Z,996.15
2016-07-10T11:38:57.754Z,996.2
2016-07-10T11:39:57.781Z,996.1
2016-07-10T11:40:57.808Z,996.04
2016-07-10T11:41:57.835Z,996
2016-07-10T11:42:57.861Z,996.04
2016-07-10T11:43:57.890Z,996
2016-07-10T11:44:57.913Z,996.01
2016-07-10T11:45:57.945Z,996.03
2016-07-10T11:46:57.965Z,996.01
2016-07-10T11:47:57.998Z,996.02
2016-07-10T11:48:58.020Z,995.97
2016-07-10T11:49:58.049Z,996.04
2016-07-10T11:50:58.074Z,995.97
2016-07-10T11:51:58.104Z,995.98
2016-07-10T11:52:58.139Z,995.88
2016-07-10T11:53:58.155Z,995.87
2016-07-10T11:54:58.186Z,995.87
2016-07-10T11:55:58.212Z,995.87
2016-07-10T11:56:58.242Z,995.87
2016-07-10T11:57:58.266Z,995.88
2016-07-10T11:58:58.295Z,995.87
2016-07-10T11:59:58.324Z,995.87
2016-07-10T12:00:58.351Z,995.84
2016-07-10T12:01:58.375Z,995.85
2016-07-10T12:02:58.404Z,995.92
2016-07-10T12:03:58.434Z,995.88
2016-07-10T12:04:58.458Z,995.9
2016-07-10T12:05:58.487Z,995.95
2016-07-10T12:06:58.512Z,995.87
2016-07-10T12:07:58.542Z,995.88
2016-07-10T12:08:58.573Z,995.89
2016-07-10T12:09:58.594Z,995.88
2016-07-10T12:10:58.625Z,995.9
2016-07-10T12:11:58.647Z,995.88
2016-07-10T12:12:58.679Z,995.85
2016-07-10T12:13:58.704Z,995.89
2016-07-10T12:14:58.732Z,995.94
2016-07-10T12:15:58.757Z,995.93
2016-07-10T12:16:58.786Z,995.96
2016-07-10T12:17:58.812Z,995.94
2016-07-10T12:18:58.840Z,995.93
2016-07-10T12:19:58.867Z,995.87
2016-07-10T12:20:58.892Z,995.8
2016-07-10T12:21:58.923Z,995.74
2016-07-10T12:22:58.950Z,995.74
2016-07-10T12:23:58.977Z,995.68
2016-07-10T12:24:59.017Z,995.57
2016-07-10T12:25:59.034Z,995.61
2016-07-10T12:26:59.060Z,995.55
2016-07-10T12:27:59.099Z,995.46
2016-07-10T12:28:59.117Z,995.46
2016-07-10T12:29:59.141Z,995.42
2016-07-10T12:30:59.172Z,995.41